createdAt,value
2018-07-03T00:00:53.610Z,65.50
2018-07-03T00:03:27.416Z,65.70
2018-07-03T00:05:58.166Z,65.70
2018-07-03T00:10:59.539Z,66.10
2018-07-03T00:13:29.991Z,66.10
2018-07-03T00:16:00.318Z,66.30
2018-07-03T00:18:31.156Z,67.40
2018-07-03T00:23:31.525Z,66.70
2018-07-03T00:26:07.386Z,66.60
2018-07-03T00:28:41.373Z,66.70
2018-07-03T00:31:11.605Z,66.70
2018-07-03T00:33:42.554Z,66.50
2018-07-03T00:36:13.762Z,67.00
2018-07-03T00:38:44.335Z,66.80
2018-07-03T00:41:15.146Z,66.90
2018-07-03T00:44:05.918Z,67.20
2018-07-03T00:46:36.198Z,67.20
2018-07-03T00:49:06.645Z,67.40
2018-07-03T00:51:36.892Z,67.30
2018-07-03T00:54:07.930Z,67.40
2018-07-03T00:56:39.006Z,67.40
2018-07-03T00:59:09.837Z,67.40
2018-07-03T01:01:40.164Z,67.80
2018-07-03T01:04:11.545Z,68.60
2018-07-03T01:06:42.854Z,68.10
2018-07-03T01:09:13.115Z,68.20
2018-07-03T01:11:44.563Z,68.10
2018-07-03T01:14:14.965Z,68.20
2018-07-03T01:16:45.937Z,69.40
2018-07-03T01:19:17.838Z,68.40
2018-07-03T01:21:49.957Z,68.60
2018-07-03T01:24:20.390Z,68.40
2018-07-03T01:26:52.309Z,68.40
2018-07-03T01:29:23.266Z,68.50
2018-07-03T01:31:53.997Z,68.40
2018-07-03T01:34:24.516Z,68.70
2018-07-03T01:36:55.119Z,68.60
2018-07-03T01:39:25.964Z,68.80
2018-07-03T01:41:57.618Z,68.80
2018-07-03T01:44:29.802Z,68.80
2018-07-03T01:47:02.238Z,69.10
2018-07-03T01:49:33.136Z,69.30
2018-07-03T01:52:04.006Z,69.30
2018-07-03T01:54:34.365Z,69.50
2018-07-03T01:57:04.718Z,69.40
2018-07-03T02:02:05.892Z,69.60
2018-07-03T02:04:36.309Z,69.50
2018-07-03T02:07:08.677Z,69.40
2018-07-03T02:12:10.618Z,70.00
2018-07-03T02:14:42.154Z,69.70
2018-07-03T02:17:13.001Z,69.70
2018-07-03T02:19:43.757Z,69.90
2018-07-03T02:22:15.350Z,69.90
2018-07-03T02:24:45.573Z,69.80
2018-07-03T02:27:18.892Z,70.10
2018-07-03T02:32:20.901Z,70.10
2018-07-03T02:34:53.473Z,70.20
2018-07-03T02:37:24.622Z,70.00
2018-07-03T02:39:55.038Z,70.20
2018-07-03T02:42:26.376Z,70.40
2018-07-03T02:44:57.601Z,70.80
2018-07-03T02:47:28.838Z,71.40
2018-07-03T02:50:00.444Z,71.30
2018-07-03T02:52:34.766Z,71.70
2018-07-03T02:55:05.256Z,72.00
2018-07-03T02:57:35.961Z,72.60
2018-07-03T03:00:07.059Z,72.90
2018-07-03T03:02:38.612Z,73.30
2018-07-03T03:05:09.622Z,73.10
2018-07-03T03:07:40.481Z,72.90
2018-07-03T03:10:11.870Z,73.50
2018-07-03T03:12:42.933Z,72.90
2018-07-03T03:15:14.785Z,72.70
2018-07-03T03:17:45.101Z,72.30
2018-07-03T03:20:16.383Z,72.30
2018-07-03T03:22:47.658Z,72.20
2018-07-03T03:25:18.288Z,72.60
2018-07-03T03:27:48.574Z,72.70
2018-07-03T03:30:18.958Z,73.30
2018-07-03T03:32:50.371Z,73.60
2018-07-03T03:35:20.715Z,73.50
2018-07-03T03:37:53.862Z,73.80
2018-07-03T03:40:25.501Z,73.20
2018-07-03T03:42:56.346Z,73.20
2018-07-03T03:45:27.726Z,73.90
2018-07-03T03:47:57.940Z,73.00
2018-07-03T03:50:28.312Z,73.10
2018-07-03T03:53:00.385Z,72.70
2018-07-03T03:55:30.597Z,73.10
2018-07-03T03:58:00.920Z,73.80
2018-07-03T04:00:32.455Z,73.90
2018-07-03T04:03:03.142Z,73.40
2018-07-03T04:05:33.342Z,72.80
2018-07-03T04:08:04.159Z,72.50
2018-07-03T04:10:36.723Z,72.60
2018-07-03T04:13:08.408Z,72.10
2018-07-03T04:15:38.673Z,71.90
2018-07-03T04:18:09.435Z,71.30
2018-07-03T04:20:40.077Z,71.40
2018-07-03T04:23:11.187Z,71.90
2018-07-03T04:25:41.980Z,71.10
2018-07-03T04:28:12.241Z,71.10
2018-07-03T04:30:42.625Z,71.00
2018-07-03T04:33:13.539Z,71.00
2018-07-03T04:35:44.326Z,71.00
2018-07-03T04:38:15.752Z,70.80
2018-07-03T04:40:46.179Z,71.80
2018-07-03T04:43:17.396Z,71.60
2018-07-03T04:45:47.760Z,71.30
2018-07-03T04:48:19.271Z,70.90
2018-07-03T04:50:54.820Z,71.10
2018-07-03T04:53:25.174Z,72.10
2018-07-03T04:55:57.422Z,72.10
2018-07-03T04:58:29.178Z,71.80
2018-07-03T05:01:01.200Z,71.50
2018-07-03T05:03:32.195Z,71.50
2018-07-03T05:06:03.255Z,71.40
2018-07-03T05:08:33.984Z,71.10
2018-07-03T05:11:04.843Z,71.40
2018-07-03T05:13:37.679Z,71.80
2018-07-03T05:16:09.830Z,70.70
2018-07-03T05:18:41.740Z,70.20
2018-07-03T05:21:15.165Z,70.20
2018-07-03T05:23:47.188Z,70.20
2018-07-03T05:26:18.970Z,68.50
2018-07-03T05:28:52.094Z,67.90
2018-07-03T05:31:22.562Z,67.40
2018-07-03T05:33:53.707Z,66.90
2018-07-03T05:36:25.845Z,67.90
2018-07-03T05:38:56.564Z,67.00
2018-07-03T05:41:27.053Z,66.60
2018-07-03T05:43:58.104Z,65.80
2018-07-03T05:46:29.159Z,65.50
2018-07-03T05:49:00.684Z,65.20
2018-07-03T05:51:34.123Z,64.80
2018-07-03T05:54:04.507Z,65.10
2018-07-03T05:56:37.404Z,64.10
2018-07-03T05:59:07.823Z,63.50
2018-07-03T06:01:38.942Z,63.30
2018-07-03T06:04:09.820Z,64.10
2018-07-03T06:06:40.229Z,62.80
2018-07-03T06:09:11.348Z,61.70
2018-07-03T06:11:43.897Z,59.50
2018-07-03T06:14:15.984Z,59.80
2018-07-03T06:16:47.373Z,58.30
2018-07-03T06:19:17.670Z,57.40
2018-07-03T06:21:49.945Z,56.70
2018-07-03T06:24:20.742Z,56.90
2018-07-03T06:26:50.919Z,55.80
2018-07-03T06:29:21.104Z,56.50
2018-07-03T06:31:51.319Z,55.50
2018-07-03T06:34:21.514Z,55.90
2018-07-03T06:36:52.300Z,55.50
2018-07-03T06:39:23.560Z,53.70
2018-07-03T06:41:54.308Z,51.80
2018-07-03T06:44:24.461Z,52.40
2018-07-03T06:49:24.533Z,51.20
2018-07-03T06:51:54.793Z,51.20
2018-07-03T06:54:25.481Z,49.40
2018-07-03T06:56:55.709Z,48.30
2018-07-03T06:59:26.093Z,46.80
2018-07-03T07:01:56.328Z,47.20
2018-07-03T07:04:27.153Z,46.60
2018-07-03T07:06:57.746Z,47.30
2018-07-03T07:09:28.001Z,46.40
2018-07-03T07:11:58.580Z,46.40
2018-07-03T07:14:28.882Z,47.00
2018-07-03T07:16:59.165Z,47.80
2018-07-03T07:19:29.733Z,46.40
2018-07-03T07:22:00.074Z,45.70
2018-07-03T07:24:30.837Z,46.50
2018-07-03T07:27:01.113Z,46.50
2018-07-03T07:29:31.386Z,44.30
2018-07-03T07:32:01.897Z,43.60
2018-07-03T07:34:34.348Z,42.90
2018-07-03T07:37:04.810Z,42.40
2018-07-03T07:39:35.607Z,41.60
2018-07-03T07:42:05.946Z,42.20
2018-07-03T07:44:36.188Z,43.00
2018-07-03T07:47:07.181Z,42.90
2018-07-03T07:49:37.436Z,40.70
2018-07-03T07:52:07.785Z,38.50
2018-07-03T07:54:38.399Z,39.40
2018-07-03T07:57:08.864Z,39.90
2018-07-03T07:59:39.364Z,40.00
2018-07-03T08:02:10.357Z,39.70
2018-07-03T08:04:40.620Z,38.80
2018-07-03T08:07:11.192Z,38.70
2018-07-03T08:09:41.533Z,36.00
2018-07-03T08:12:11.981Z,36.50
2018-07-03T08:14:43.179Z,38.00
2018-07-03T08:17:13.718Z,36.90
2018-07-03T08:19:45.062Z,36.70
2018-07-03T08:22:15.710Z,36.40
2018-07-03T08:24:46.078Z,33.90
2018-07-03T08:27:17.597Z,33.70
2018-07-03T08:29:48.279Z,34.20
2018-07-03T08:32:19.643Z,34.80
2018-07-03T08:34:51.178Z,35.40
2018-07-03T08:39:51.945Z,33.50
2018-07-03T08:42:23.037Z,33.50
2018-07-03T08:44:54.359Z,33.90
2018-07-03T08:47:26.206Z,33.70
2018-07-03T08:49:56.858Z,32.30
2018-07-03T08:52:28.910Z,33.80
2018-07-03T08:54:59.148Z,34.10
2018-07-03T08:57:30.841Z,35.30
2018-07-03T09:00:05.869Z,32.20
2018-07-03T09:02:41.936Z,31.00
2018-07-03T09:05:13.807Z,31.60
2018-07-03T09:07:45.180Z,32.90
2018-07-03T09:10:19.299Z,31.70
2018-07-03T09:12:50.269Z,31.20
2018-07-03T09:15:24.901Z,31.60
2018-07-03T09:17:55.956Z,30.60
2018-07-03T09:20:26.470Z,29.10
2018-07-03T09:22:58.565Z,28.40
2018-07-03T09:25:29.418Z,28.40
2018-07-03T09:28:00.472Z,29.50
2018-07-03T09:30:32.115Z,28.30
2018-07-03T09:33:05.844Z,26.90
2018-07-03T09:35:37.317Z,28.10
2018-07-03T09:38:11.841Z,28.30
2018-07-03T09:40:43.057Z,28.00
2018-07-03T09:43:14.252Z,28.00
2018-07-03T09:45:45.582Z,28.30
2018-07-03T09:48:16.399Z,29.60
2018-07-03T09:50:48.018Z,27.00
2018-07-03T09:53:22.723Z,27.60
2018-07-03T09:55:53.075Z,28.20
2018-07-03T09:58:25.150Z,27.80
2018-07-03T10:00:58.274Z,27.00
2018-07-03T10:03:29.507Z,26.60
2018-07-03T10:06:01.028Z,26.70
2018-07-03T10:08:32.844Z,28.20
2018-07-03T10:11:03.247Z,27.70
2018-07-03T10:13:34.180Z,27.60
2018-07-03T10:16:05.246Z,26.50
2018-07-03T10:18:35.617Z,27.30
2018-07-03T10:21:07.254Z,28.30
2018-07-03T10:23:38.319Z,29.40
2018-07-03T10:26:08.641Z,30.70
2018-07-03T10:28:39.083Z,30.50
2018-07-03T10:31:09.996Z,30.00
2018-07-03T10:33:41.061Z,30.00
2018-07-03T10:36:11.305Z,29.80
2018-07-03T10:38:41.622Z,28.50
2018-07-03T10:41:11.857Z,28.80
2018-07-03T10:43:48.482Z,27.80
2018-07-03T10:46:18.895Z,26.80
2018-07-03T10:48:55.556Z,27.70
2018-07-03T10:51:26.232Z,27.60
2018-07-03T10:53:57.056Z,28.10
2018-07-03T10:56:35.970Z,27.20
2018-07-03T10:59:07.752Z,28.30
2018-07-03T11:01:38.040Z,28.90
2018-07-03T11:04:11.912Z,29.20
2018-07-03T11:06:42.997Z,29.00
2018-07-03T11:09:13.488Z,30.00
2018-07-03T11:11:44.378Z,32.00
2018-07-03T11:14:15.330Z,32.10
2018-07-03T11:16:48.304Z,32.40
2018-07-03T11:19:19.141Z,32.80
2018-07-03T11:21:50.144Z,33.40
2018-07-03T11:24:20.672Z,35.60
2018-07-03T11:26:51.405Z,37.50
2018-07-03T11:29:24.185Z,38.50
2018-07-03T11:31:57.315Z,37.50
2018-07-03T11:34:28.364Z,37.80
2018-07-03T11:36:59.508Z,38.20
2018-07-03T11:39:29.826Z,39.10
2018-07-03T11:44:30.189Z,39.60
2018-07-03T11:47:02.472Z,40.20
2018-07-03T11:49:34.387Z,40.80
2018-07-03T11:52:05.061Z,41.10
2018-07-03T11:57:06.616Z,41.10
2018-07-03T11:59:39.625Z,39.20
2018-07-03T12:02:10.273Z,40.20
2018-07-03T12:04:40.494Z,40.90
2018-07-03T12:07:10.702Z,41.70
2018-07-03T12:09:40.889Z,42.70
2018-07-03T12:12:11.844Z,43.50
2018-07-03T12:14:42.381Z,43.70
2018-07-03T12:17:12.824Z,43.50
2018-07-03T12:19:43.086Z,43.30
2018-07-03T12:22:17.825Z,43.20
2018-07-03T12:24:48.057Z,43.30
2018-07-03T12:27:18.844Z,43.20
2018-07-03T12:29:49.897Z,44.10
2018-07-03T12:32:23.839Z,44.00
2018-07-03T12:34:54.158Z,44.20
2018-07-03T12:37:24.334Z,44.10
2018-07-03T12:39:54.552Z,44.40
2018-07-03T12:42:24.678Z,43.80
2018-07-03T12:44:55.179Z,44.00
2018-07-03T12:47:26.171Z,45.20
2018-07-03T12:49:56.413Z,43.20
2018-07-03T12:52:26.590Z,44.10
2018-07-03T12:54:56.847Z,44.90
2018-07-03T12:57:27.037Z,45.70
2018-07-03T12:59:58.280Z,45.40
2018-07-03T13:02:28.463Z,46.70
2018-07-03T13:04:58.830Z,46.70
2018-07-03T13:07:28.995Z,46.00
2018-07-03T13:09:59.182Z,45.50
2018-07-03T13:12:30.024Z,46.00
2018-07-03T13:15:00.374Z,45.90
2018-07-03T13:17:30.579Z,45.50
2018-07-03T13:20:00.802Z,46.70
2018-07-03T13:22:30.983Z,47.00
2018-07-03T13:25:01.385Z,46.80
2018-07-03T13:27:31.594Z,47.20
2018-07-03T13:30:02.163Z,47.00
2018-07-03T13:32:32.237Z,46.70
2018-07-03T13:35:04.321Z,46.90
2018-07-03T13:37:34.495Z,46.20
2018-07-03T13:40:05.436Z,46.60
2018-07-03T13:42:36.103Z,46.80
2018-07-03T13:45:06.437Z,46.70
2018-07-03T13:47:36.649Z,47.20
2018-07-03T13:50:07.143Z,46.60
2018-07-03T13:52:37.385Z,47.60
2018-07-03T13:57:37.460Z,47.50
2018-07-03T14:00:09.541Z,47.40
2018-07-03T14:02:39.763Z,47.00
2018-07-03T14:05:10.022Z,48.80
2018-07-03T14:07:40.238Z,48.10
2018-07-03T14:10:10.419Z,49.10
2018-07-03T14:12:40.619Z,48.90
2018-07-03T14:15:10.936Z,49.00
2018-07-03T14:17:41.114Z,48.30
2018-07-03T14:20:11.483Z,49.10
2018-07-03T14:22:41.673Z,49.00
2018-07-03T14:25:11.871Z,48.90
2018-07-03T14:30:12.118Z,49.70
2018-07-03T14:32:42.318Z,49.40
2018-07-03T14:35:13.184Z,50.00
2018-07-03T14:37:43.752Z,49.40
2018-07-03T14:40:14.254Z,49.50
2018-07-03T14:42:44.445Z,49.30
2018-07-03T14:45:14.653Z,49.40
2018-07-03T14:47:44.851Z,49.80
2018-07-03T14:50:15.134Z,50.70
2018-07-03T14:52:45.338Z,51.40
2018-07-03T14:55:15.510Z,50.90
2018-07-03T14:57:51.886Z,50.70
2018-07-03T15:19:56.473Z,51.70
2018-07-03T15:22:27.257Z,51.50
2018-07-03T15:24:59.104Z,53.10
2018-07-03T15:27:29.385Z,53.20
2018-07-03T15:32:29.307Z,53.30
2018-07-03T15:34:59.489Z,52.70
2018-07-03T15:37:29.879Z,53.10
2018-07-03T15:40:00.062Z,52.50
2018-07-03T15:42:30.199Z,52.80
2018-07-03T15:45:09.988Z,52.80
2018-07-03T15:47:40.134Z,52.80
2018-07-03T15:50:11.539Z,52.60
2018-07-03T15:52:41.690Z,52.40
2018-07-03T15:55:12.520Z,53.50
2018-07-03T15:57:43.436Z,53.10
2018-07-03T16:00:15.902Z,53.20
2018-07-03T16:03:06.597Z,54.10
2018-07-03T16:05:58.872Z,54.00
2018-07-03T16:08:47.483Z,53.90
2018-07-03T16:11:18.237Z,53.90
2018-07-03T16:13:48.467Z,54.30
2018-07-03T16:16:19.406Z,54.30
2018-07-03T16:18:50.565Z,54.80
2018-07-03T16:21:20.695Z,54.80
2018-07-03T16:23:50.867Z,55.40
2018-07-03T16:26:21.914Z,54.80
2018-07-03T16:28:53.496Z,55.10
2018-07-03T16:31:24.572Z,55.90
2018-07-03T16:33:55.795Z,55.60
2018-07-03T16:36:25.956Z,55.70
2018-07-03T16:38:56.097Z,56.10
2018-07-03T16:41:26.325Z,56.30
2018-07-03T16:43:56.757Z,56.10
2018-07-03T16:46:27.884Z,56.30
2018-07-03T16:48:58.368Z,56.20
2018-07-03T16:51:29.987Z,56.40
2018-07-03T16:54:00.160Z,56.50
2018-07-03T16:56:30.371Z,56.20
2018-07-03T16:59:00.614Z,56.70
2018-07-03T17:01:31.019Z,56.60
2018-07-03T17:04:01.209Z,56.60
2018-07-03T17:06:32.369Z,56.70
2018-07-03T17:09:02.649Z,57.70
2018-07-03T17:11:35.332Z,56.80
2018-07-03T17:14:07.858Z,56.50
2018-07-03T17:16:38.233Z,57.00
2018-07-03T17:19:13.702Z,56.50
2018-07-03T17:21:43.940Z,56.70
2018-07-03T17:24:14.196Z,57.20
2018-07-03T17:26:44.419Z,57.30
2018-07-03T17:29:14.648Z,57.30
2018-07-03T17:31:45.321Z,57.20
2018-07-03T17:34:15.888Z,56.90
2018-07-03T17:36:46.193Z,57.20
2018-07-03T17:39:18.339Z,57.50
2018-07-03T17:42:06.390Z,57.70
2018-07-03T17:44:52.744Z,57.60
2018-07-03T17:47:23.428Z,58.20
2018-07-03T17:49:53.701Z,58.50
2018-07-03T17:52:23.860Z,58.60
2018-07-03T17:54:53.987Z,59.60
2018-07-03T17:57:24.181Z,59.70
2018-07-03T17:59:56.411Z,60.20
2018-07-03T18:02:26.566Z,59.50
2018-07-03T18:04:56.911Z,59.40
2018-07-03T18:07:27.063Z,59.60
2018-07-03T18:09:58.137Z,59.40
2018-07-03T18:12:28.363Z,60.00
2018-07-03T18:14:58.584Z,60.00
2018-07-03T18:17:28.721Z,60.70
2018-07-03T18:19:58.905Z,60.80
2018-07-03T18:22:29.040Z,61.00
2018-07-03T18:24:59.459Z,61.30
2018-07-03T18:27:29.611Z,61.80
2018-07-03T18:29:59.754Z,61.50
2018-07-03T18:32:30.065Z,61.70
2018-07-03T18:35:00.276Z,62.20
2018-07-03T18:37:30.464Z,62.60
2018-07-03T18:40:00.606Z,62.70
2018-07-03T18:42:31.013Z,62.50
2018-07-03T18:45:01.314Z,63.20
2018-07-03T18:47:31.530Z,63.50
2018-07-03T18:50:01.656Z,63.90
2018-07-03T18:52:31.829Z,64.20
2018-07-03T18:55:02.025Z,64.00
2018-07-03T18:57:32.787Z,64.70
2018-07-03T19:00:03.478Z,64.30
2018-07-03T19:02:36.538Z,64.00
2018-07-03T19:05:06.772Z,64.40
2018-07-03T19:07:37.656Z,63.70
2018-07-03T19:10:08.019Z,64.90
2018-07-03T19:12:39.903Z,65.10
2018-07-03T19:15:10.725Z,65.00
2018-07-03T19:17:44.950Z,65.20
2018-07-03T19:20:18.402Z,65.10
2018-07-03T19:22:48.658Z,65.10
2018-07-03T19:25:18.886Z,65.50
2018-07-03T19:27:49.131Z,65.80
2018-07-03T19:30:19.474Z,65.70
2018-07-03T19:32:54.474Z,66.40
2018-07-03T19:35:24.954Z,65.30
2018-07-03T19:37:55.256Z,65.40
2018-07-03T19:40:26.401Z,65.90
2018-07-03T19:43:34.521Z,66.20
2018-07-03T19:46:06.922Z,66.20
2018-07-03T19:48:37.343Z,67.30
2018-07-03T19:51:08.869Z,66.50
2018-07-03T19:53:41.139Z,66.50
2018-07-03T19:56:12.575Z,66.40
2018-07-03T19:58:46.121Z,66.20
2018-07-03T20:01:16.391Z,66.20
2018-07-03T20:03:46.608Z,65.90
2018-07-03T20:06:17.480Z,66.10
2018-07-03T20:08:48.664Z,65.80
2018-07-03T20:11:20.090Z,66.00
2018-07-03T20:13:50.549Z,65.90
2018-07-03T20:16:21.608Z,66.10
2018-07-03T20:18:51.909Z,66.80
2018-07-03T20:21:23.012Z,66.40
2018-07-03T20:23:55.035Z,66.40
2018-07-03T20:26:26.160Z,67.10
2018-07-03T20:28:58.150Z,66.80
2018-07-03T20:31:29.521Z,67.00
2018-07-03T20:34:02.345Z,67.30
2018-07-03T20:36:34.739Z,67.30
2018-07-03T20:39:09.948Z,67.60
2018-07-03T20:41:41.762Z,67.60
2018-07-03T20:44:12.286Z,67.50
2018-07-03T20:46:44.624Z,67.50
2018-07-03T20:51:49.372Z,68.00
2018-07-03T20:54:21.184Z,67.80
2018-07-03T20:56:51.357Z,68.00
2018-07-03T20:59:21.525Z,68.20
2018-07-03T21:01:51.665Z,68.20
2018-07-03T21:04:22.016Z,68.40
2018-07-03T21:06:52.211Z,69.50
2018-07-03T21:09:22.594Z,68.70
2018-07-03T21:11:53.961Z,68.90
2018-07-03T21:14:24.211Z,69.10
2018-07-03T21:16:54.470Z,69.00
2018-07-03T21:19:25.037Z,69.00
2018-07-03T21:21:56.045Z,69.00
2018-07-03T21:24:27.431Z,69.20
2018-07-03T21:26:57.857Z,69.60
2018-07-03T21:29:28.051Z,69.70
2018-07-03T21:31:58.294Z,70.00
2018-07-03T21:34:30.994Z,70.00
2018-07-03T21:37:01.197Z,70.20
2018-07-03T21:39:31.397Z,70.10
2018-07-03T21:42:02.221Z,70.10
2018-07-03T21:44:35.409Z,70.00
2018-07-03T21:47:09.187Z,70.30
2018-07-03T21:49:41.493Z,69.90
2018-07-03T21:52:13.204Z,69.90
2018-07-03T21:54:46.361Z,70.00
2018-07-03T21:57:20.362Z,70.00
2018-07-03T21:59:53.441Z,70.30
2018-07-03T22:02:26.112Z,70.40
2018-07-03T22:04:58.702Z,70.20
2018-07-03T22:07:33.565Z,70.30
2018-07-03T22:10:04.323Z,70.40
2018-07-03T22:12:36.028Z,70.40
2018-07-03T22:15:07.302Z,70.80
2018-07-03T22:17:37.595Z,70.80
2018-07-03T22:20:07.830Z,70.50
2018-07-03T22:22:40.345Z,70.70
2018-07-03T22:25:12.067Z,70.60
2018-07-03T22:27:43.515Z,70.80
2018-07-03T22:30:17.929Z,70.70
2018-07-03T22:32:50.691Z,71.10
2018-07-03T22:35:22.979Z,71.00
2018-07-03T22:38:03.578Z,71.40
2018-07-03T22:40:37.154Z,71.50
2018-07-03T22:43:08.493Z,71.60
2018-07-03T22:45:39.762Z,71.80
2018-07-03T22:48:16.980Z,71.80
2018-07-03T22:50:47.261Z,71.90
2018-07-03T22:53:26.653Z,72.00
2018-07-03T22:56:00.056Z,71.60
2018-07-03T22:58:30.372Z,71.60
2018-07-03T23:01:01.242Z,71.70
2018-07-03T23:03:33.805Z,71.70
2018-07-03T23:06:04.972Z,71.80
2018-07-03T23:08:40.356Z,71.90
2018-07-03T23:11:13.508Z,71.90
2018-07-03T23:16:23.000Z,71.70
2018-07-03T23:18:54.293Z,72.00
2018-07-03T23:21:27.659Z,72.80
2018-07-03T23:23:59.479Z,72.20
2018-07-03T23:26:29.888Z,72.30
2018-07-03T23:29:00.917Z,72.30
2018-07-03T23:31:32.140Z,72.50
2018-07-03T23:34:02.966Z,72.60
2018-07-03T23:36:35.891Z,72.90
2018-07-03T23:39:11.326Z,72.90
2018-07-03T23:41:47.158Z,72.90
2018-07-03T23:44:21.249Z,72.80
2018-07-03T23:47:10.263Z,72.60
2018-07-03T23:50:03.425Z,72.90
2018-07-03T23:52:51.807Z,73.20
2018-07-03T23:55:43.032Z,72.90
2018-07-03T23:58:31.859Z,72.70
